Terminal Aerodrome Forecast
Issued by NWS

Home | Current Version | Previous Version | Text Only | Print | Product List | Glossary On
Versions: 1 2 3 4 5 6 7 8 9 10 11 12 13 14 15 16 17 18 19 20 21 22 23 24 25 26 27 28 29 30 31 32 33 34 35 36 37 38
000
FTUS41 KBOX 172339
TAFFMH
TAF
KFMH 172339Z 1800/1824 28010KT P6SM OVC100
     FM180200 28010G22KT P6SM BKN070
     FM181500 28014G30KT P6SM BKN050
     FM181900 29013G24KT P6SM SCT050=

USA.gov is the U.S. government's official web portal to all federal, state and local government web resources and services.